Map

Track Data

SID SEASON NUMBER BASIN SUBBASIN NAME ISO_TIME NATURE LAT LON WMO_WIND WMO_PRES WMO_AGENCY TRACK_TYPE DIST2LAND LANDFALL IFLAG USA_AGENCY USA_ATCF_ID USA_LAT USA_LON USA_RECORD USA_STATUS USA_WIND USA_PRES USA_SSHS USA_R34_NE USA_R34_SE USA_R34_SW USA_R34_NW USA_R50_NE USA_R50_SE USA_R50_SW USA_R50_NW USA_R64_NE USA_R64_SE USA_R64_SW USA_R64_NW USA_POCI USA_ROCI USA_RMW USA_EYE TOKYO_LAT TOKYO_LON TOKYO_GRADE TOKYO_WIND TOKYO_PRES TOKYO_R50_DIR TOKYO_R50_LONG TOKYO_R50_SHORT TOKYO_R30_DIR TOKYO_R30_LONG TOKYO_R30_SHORT TOKYO_LAND CMA_LAT CMA_LON CMA_CAT CMA_WIND CMA_PRES HKO_LAT HKO_LON HKO_CAT HKO_WIND HKO_PRES NEWDELHI_LAT NEWDELHI_LON NEWDELHI_GRADE NEWDELHI_WIND NEWDELHI_PRES NEWDELHI_CI NEWDELHI_DP NEWDELHI_POCI REUNION_LAT REUNION_LON REUNION_TYPE REUNION_WIND REUNION_PRES REUNION_TNUM REUNION_CI REUNION_RMW REUNION_R34_NE REUNION_R34_SE REUNION_R34_SW REUNION_R34_NW REUNION_R50_NE REUNION_R50_SE REUNION_R50_SW REUNION_R50_NW REUNION_R64_NE REUNION_R64_SE REUNION_R64_SW REUNION_R64_NW BOM_LAT BOM_LON BOM_TYPE BOM_WIND BOM_PRES BOM_TNUM BOM_CI BOM_RMW BOM_R34_NE BOM_R34_SE BOM_R34_SW BOM_R34_NW BOM_R50_NE BOM_R50_SE BOM_R50_SW BOM_R50_NW BOM_R64_NE BOM_R64_SE BOM_R64_SW BOM_R64_NW BOM_ROCI BOM_POCI BOM_EYE BOM_POS_METHOD BOM_PRES_METHOD NADI_LAT NADI_LON NADI_CAT NADI_WIND NADI_PRES WELLINGTON_LAT WELLINGTON_LON WELLINGTON_WIND WELLINGTON_PRES DS824_LAT DS824_LON DS824_STAGE DS824_WIND DS824_PRES TD9636_LAT TD9636_LON TD9636_STAGE TD9636_WIND TD9636_PRES TD9635_LAT TD9635_LON TD9635_WIND TD9635_PRES TD9635_ROCI NEUMANN_LAT NEUMANN_LON NEUMANN_CLASS NEUMANN_WIND NEUMANN_PRES MLC_LAT MLC_LON MLC_CLASS MLC_WIND MLC_PRES USA_GUST BOM_GUST BOM_GUST_PER REUNION_GUST REUNION_GUST_PER USA_SEAHGT USA_SEARAD_NE USA_SEARAD_SE USA_SEARAD_SW USA_SEARAD_NW STORM_SPEED STORM_DIR
1883260N19280 1883 29 NA CS NOT_NAMED 1883-09-16 12:00:00 TS 19.0000 -80.0000 main 190 190 _____________O -1 19.0000 -80.0000 TS 35 3 270
1883260N19280 1883 29 NA CS NOT_NAMED 1883-09-16 15:00:00 TS 19.0000 -80.1625 main 209 209 _____________P -1 19.0000 -80.1625 TS 37 3 270
1883260N19280 1883 29 NA CS NOT_NAMED 1883-09-16 18:00:00 TS 19.0000 -80.3000 main 219 219 _____________O -1 19.0000 -80.3000 TS 40 2 270
1883260N19280 1883 29 NA CS NOT_NAMED 1883-09-16 21:00:00 TS 19.0000 -80.4000 main 229 229 _____________P -1 19.0000 -80.4000 TS 42 2 270
1883260N19280 1883 29 NA CS NOT_NAMED 1883-09-17 00:00:00 TS 19.0000 -80.5000 main 238 238 _____________O -1 19.0000 -80.5000 TS 45 2 270
1883260N19280 1883 29 NA CS NOT_NAMED 1883-09-17 03:00:00 TS 19.0000 -80.6500 main 248 258 _____________P -1 19.0000 -80.6500 TS 45 3 270
1883260N19280 1883 29 NA CS NOT_NAMED 1883-09-17 06:00:00 TS 19.0000 -80.8000 main 268 268 _____________O -1 19.0000 -80.8000 TS 45 2 270
1883260N19280 1883 29 NA CS NOT_NAMED 1883-09-17 09:00:00 TS 18.9999 -80.8850 main 278 278 _____________P -1 18.9999 -80.8850 TS 45 2 270
1883260N19280 1883 29 NA CS NOT_NAMED 1883-09-17 12:00:00 TS 19.0000 -81.0000 main 288 288 _____________O -1 19.0000 -81.0000 TS 45 3 269
1883260N19280 1883 29 NA CS NOT_NAMED 1883-09-17 15:00:00 TS 18.9925 -81.2275 main 308 300 _____________P -1 18.9925 -81.2275 TS 47 5 270
1883260N19280 1883 29 NA CS NOT_NAMED 1883-09-17 18:00:00 TS 19.0000 -81.5000 main 300 291 _____________O -1 19.0000 -81.5000 TS 50 5 276
1883260N19280 1883 29 NA CS NOT_NAMED 1883-09-17 21:00:00 TS 19.0425 -81.7500 main 291 270 _____________P -1 19.0425 -81.7500 TS 50 5 282
1883260N19280 1883 29 NA CS NOT_NAMED 1883-09-18 00:00:00 TS 19.1000 -82.0000 main 270 253 _____________O -1 19.1000 -82.0000 TS 50 5 284
1883260N19280 1883 29 NA CS NOT_NAMED 1883-09-18 03:00:00 TS 19.1575 -82.2500 main 253 248 _____________P -1 19.1575 -82.2500 TS 50 5 282
1883260N19280 1883 29 NA CS NOT_NAMED 1883-09-18 06:00:00 TS 19.2000 -82.5000 main 248 246 _____________O -1 19.2000 -82.5000 TS 50 5 274
1883260N19280 1883 29 NA CS NOT_NAMED 1883-09-18 09:00:00 TS 19.1924 -82.7351 main 246 246 _____________P -1 19.1924 -82.7351 TS 50 5 270
1883260N19280 1883 29 NA CS NOT_NAMED 1883-09-18 12:00:00 TS 19.2000 -83.0000 main 246 238 _____________O -1 19.2000 -83.0000 TS 50 6 279
1883260N19280 1883 29 NA CS NOT_NAMED 1883-09-18 15:00:00 TS 19.2851 -83.3424 main 240 238 _____________P -1 19.2851 -83.3424 TS 47 7 287
1883260N19280 1883 29 NA CS NOT_NAMED 1883-09-18 18:00:00 TS 19.4000 -83.7000 main 242 241 _____________O -1 19.4000 -83.7000 TS 45 7 289
1883260N19280 1883 29 NA CS NOT_NAMED 1883-09-18 21:00:00 TS 19.4999 -84.0076 main 246 246 _____________P -1 19.4999 -84.0076 TS 45 6 289
1883260N19280 1883 29 NA CS NOT_NAMED 1883-09-19 00:00:00 TS 19.6000 -84.3000 main 246 234 _____________O -1 19.6000 -84.3000 TS 45 6 290
1883260N19280 1883 29 NA CS NOT_NAMED 1883-09-19 03:00:00 TS 19.7000 -84.6000 main 235 223 _____________P -1 19.7000 -84.6000 TS 45 6 289
1883260N19280 1883 29 NA CS NOT_NAMED 1883-09-19 06:00:00 TS 19.8000 -84.9000 main 223 203 _____________O -1 19.8000 -84.9000 TS 45 6 291
1883260N19280 1883 29 NA CS NOT_NAMED 1883-09-19 09:00:00 TS 19.9073 -85.1775 main 203 171 _____________P -1 19.9073 -85.1775 TS 45 6 290
1883260N19280 1883 29 NA CS NOT_NAMED 1883-09-19 12:00:00 TS 20.0000 -85.5000 main 171 137 _____________O -1 20.0000 -85.5000 TS 45 7 281
1883260N19280 1883 29 NA CS NOT_NAMED 1883-09-19 15:00:00 TS 20.0500 -85.9276 main 130 94 _____________P -1 20.0500 -85.9276 TS 45 9 277
1883260N19280 1883 29 NA CS NOT_NAMED 1883-09-19 18:00:00 TS 20.1000 -86.4000 main 94 61 _____________O -1 20.1000 -86.4000 TS 45 9 280
1883260N19280 1883 29 NA CS NOT_NAMED 1883-09-19 21:00:00 TS 20.1999 -86.8499 main 61 15 _____________P -1 20.1999 -86.8499 TS 45 9 283
1883260N19280 1883 29 NA CS NOT_NAMED 1883-09-20 00:00:00 TS 20.3000 -87.3000 main 15 0 _____________O -1 20.3000 -87.3000 TS 45 9 280
1883260N19280 1883 29 NA NA NOT_NAMED 1883-09-20 03:00:00 TS 20.3574 -87.7576 main 0 0 _____________P -1 20.3574 -87.7576 TS 42 9 277
1883260N19280 1883 29 NA NA NOT_NAMED 1883-09-20 06:00:00 TS 20.4000 -88.2000 main 0 0 _____________O -1 20.4000 -88.2000 TS 40 8 278
1883260N19280 1883 29 NA NA NOT_NAMED 1883-09-20 09:00:00 TS 20.4649 -88.6074 main 0 0 _____________P -1 20.4649 -88.6074 TS 37 8 278
1883260N19280 1883 29 NA NA NOT_NAMED 1883-09-20 12:00:00 TS 20.5000 -89.0000 main 0 0 _____________O -1 20.5000 -89.0000 TS 35 7 270
1883260N19280 1883 29 NA NA NOT_NAMED 1883-09-20 15:00:00 TS 20.4650 -89.4076 main 0 0 _____________P -1 20.4650 -89.4076 TS 32 8 262
1883260N19280 1883 29 NA NA NOT_NAMED 1883-09-20 18:00:00 TS 20.4000 -89.8000 main 0 0 _____________O -1 20.4000 -89.8000 TD 30 7 261
1883260N19280 1883 29 NA NA NOT_NAMED 1883-09-20 21:00:00 TS 20.3573 -90.1499 main 0 0 _____________P -1 20.3573 -90.1499 TD 32 7 261
1883260N19280 1883 29 NA GM NOT_NAMED 1883-09-21 00:00:00 TS 20.3000 -90.5000 main 0 0 _____________O -1 20.3000 -90.5000 TS 35 7 257
1883260N19280 1883 29 NA GM NOT_NAMED 1883-09-21 03:00:00 TS 20.2000 -90.9001 main 41 41 _____________P -1 20.2000 -90.9001 TS 37 8 255
1883260N19280 1883 29 NA GM NOT_NAMED 1883-09-21 06:00:00 TS 20.1000 -91.3000 main 77 77 _____________O -1 20.1000 -91.3000 TS 40 7 260
1883260N19280 1883 29 NA GM NOT_NAMED 1883-09-21 09:00:00 TS 20.0650 -91.6798 main 113 113 _____________P -1 20.0650 -91.6798 TS 42 7 261
1883260N19280 1883 29 NA GM NOT_NAMED 1883-09-21 12:00:00 TS 20.0000 -92.0000 main 133 124 _____________O -1 20.0000 -92.0000 TS 45 6 245
1883260N19280 1883 29 NA GM NOT_NAMED 1883-09-21 15:00:00 TS 19.8224 -92.2225 main 124 111 _____________P -1 19.8224 -92.2225 TS 45 6 223
1883260N19280 1883 29 NA GM NOT_NAMED 1883-09-21 18:00:00 TS 19.6000 -92.4000 main 111 89 _____________O -1 19.6000 -92.4000 TS 45 6 220
1883260N19280 1883 29 NA GM NOT_NAMED 1883-09-21 21:00:00 TS 19.4000 -92.6000 main 89 67 _____________P -1 19.4000 -92.6000 TS 45 6 223
1883260N19280 1883 29 NA GM NOT_NAMED 1883-09-22 00:00:00 TS 19.2000 -92.8000 main 67 54 _____________O -1 19.2000 -92.8000 TS 45 6 223
1883260N19280 1883 29 NA GM NOT_NAMED 1883-09-22 03:00:00 TS 18.9925 -93.0075 main 54 49 _____________P -1 18.9925 -93.0075 TS 42 6 223
1883260N19280 1883 29 NA GM NOT_NAMED 1883-09-22 06:00:00 TS 18.8000 -93.2000 main 49 44 _____________O -1 18.8000 -93.2000 TS 40 5 223
1883260N19280 1883 29 NA GM NOT_NAMED 1883-09-22 09:00:00 TS 18.6499 -93.3424 main 33 22 _____________P -1 18.6499 -93.3424 TS 37 4 223
1883260N19280 1883 29 NA GM NOT_NAMED 1883-09-22 12:00:00 TS 18.5000 -93.5000 main 22 0 _____________O -1 18.5000 -93.5000 TS 35 5 227
1883260N19280 1883 29 NA GM NOT_NAMED 1883-09-22 15:00:00 TS 18.3126 -93.7277 main 0 0 _____________P -1 18.3126 -93.7277 TS 27 6 230
1883260N19280 1883 29 NA NA NOT_NAMED 1883-09-22 18:00:00 TS 18.1000 -94.0000 main 0 _____________O -1 18.1000 -94.0000 TD 20 7 231

About IBTrACS Database

This database is a web-friendly format of International Best Track Archive for Climate Stewardship (IBTrACS), a global best track data archive curated by NOAA dating back to 1842.

Updated: 2021-11-26